This is the latest recevied weather packets stored in our database for station/object HB9FVK-10. If no packets are shown the sender has not sent any weather packets the latest 10 day(s).
| Time | Temp. | Humidity | Pressure | Rain* | Wind** | Luminosity | Snow |
|---|---|---|---|---|---|---|---|
| 1777360220 | 12.22° C | 65% | 1020.5 hPa | - | - | - | - |
| 1777358417 | 10.56° C | 69% | 1020.8 hPa | - | - | - | - |
| 1777352466 | 7.78° C | 79% | 1020.5 hPa | - | - | - | - |
| 1777350061 | 7.78° C | 79% | 1020.4 hPa | - | - | - | - |
| 1777343448 | 8.33° C | 77% | 1020.7 hPa | - | - | - | - |
| 1777342847 | 8.33° C | 76% | 1020.8 hPa | - | - | - | - |
| 1777335073 | 9.44° C | 74% | 1021.2 hPa | - | - | - | - |
| 1777333230 | 9.44° C | 73% | 1021 hPa | - | - | - | - |
| 1777332628 | 10° C | 72% | 1021 hPa | - | - | - | - |
| 1777330224 | 10° C | 73% | 1021 hPa | - | - | - | - |
| 1777327819 | 11.11° C | 69% | 1021.1 hPa | - | - | - | - |
| 1777323672 | 12.78° C | 63% | 1021.4 hPa | - | - | - | - |
| 1777323070 | 12.78° C | 63% | 1021.4 hPa | - | - | - | - |
| 1777321286 | 13.33° C | 59% | 1021.6 hPa | - | - | - | - |
| 1777315855 | 17.22° C | 47% | 1021.3 hPa | - | - | - | - |
| 1777311047 | 21.11° C | 33% | 1021.2 hPa | - | - | - | - |
| 1777308642 | 21.67° C | 28% | 1021.3 hPa | - | - | - | - |
| 1777302029 | 22.78° C | 24% | 1021.9 hPa | - | - | - | - |
| 1777300827 | 22.22° C | 25% | 1022.1 hPa | - | - | - | - |
| 1777296018 | 22.22° C | 25% | 1022.9 hPa | - | - | - | - |
| 1777289465 | 21.11° C | 28% | 1023.9 hPa | - | - | - | - |
| 1777287061 | 20° C | 36% | 1024.2 hPa | - | - | - | - |
| 1777282853 | 18.33° C | 41% | 1024.9 hPa | - | - | - | - |
| 1777280448 | 15.56° C | 45% | 1025.3 hPa | - | - | - | - |
| 1777278666 | - | - | 1025.5 hPa | - | - | - | - |
* Rain since midnight (hover to see other rain measurements)
** Current wind speed in m/s (hover to see current wind gust speed)